Time;durP1;ratioP1;P1;durP2;ratioP2;P2;SDS_P1;SDS_P2;PMS_P1;PMS_P2;Temp;Humidity;BMP_temperature;BMP_pressure;BME280_temperature;BME280_humidity;BME280_pressure;Samples;Min_cycle;Max_cycle;Signal;HPM_P1;HPM_P2
2022/01/08 00:01:19;;;;;;;2.40;2.00;;;;;;;2.72;78.95;95344.66;4996358;28;20310;-80
2022/01/08 00:03:45;;;;;;;2.70;2.40;;;;;;;2.74;78.80;95342.78;5011036;28;20199;-80
2022/01/08 00:06:14;;;;;;;3.13;2.10;;;;;;;2.81;78.39;95337.19;5016238;28;20207;-80
2022/01/08 00:08:54;;;;;;;2.07;1.90;;;;;;;2.75;77.94;95334.25;5015486;28;20242;-80
2022/01/08 00:11:25;;;;;;;1.93;1.77;;;;;;;2.70;77.81;95335.56;5015845;28;20237;-80
2022/01/08 00:13:55;;;;;;;4.10;2.07;;;;;;;2.69;77.07;95336.53;5015641;28;20194;-80
2022/01/08 00:16:24;;;;;;;3.20;1.90;;;;;;;2.80;77.84;95338.13;5016381;28;20207;-80
2022/01/08 00:18:52;;;;;;;2.10;1.90;;;;;;;2.86;77.65;95345.22;5015301;28;20590;-80
2022/01/08 00:21:20;;;;;;;2.10;1.90;;;;;;;2.82;76.76;95337.06;5014242;28;20239;-79
2022/01/08 00:23:48;;;;;;;2.10;1.90;;;;;;;2.83;76.66;95330.22;5016146;28;20195;-80
2022/01/08 00:26:16;;;;;;;1.90;1.80;;;;;;;2.76;77.21;95332.50;5015681;28;20199;-80
2022/01/08 00:28:43;;;;;;;2.00;1.83;;;;;;;2.69;76.81;95329.69;5015249;28;20230;-80
2022/01/08 00:31:10;;;;;;;2.40;2.20;;;;;;;2.69;77.01;95319.50;5014771;28;20242;-80
2022/01/08 00:33:42;;;;;;;2.77;2.10;;;;;;;2.72;77.44;95318.44;5014834;28;20198;-79
2022/01/08 00:36:10;;;;;;;2.37;2.17;;;;;;;2.71;77.19;95314.28;5015816;28;20195;-80
2022/01/08 00:38:37;;;;;;;2.13;2.00;;;;;;;2.76;77.30;95314.69;5015257;28;20215;-80
2022/01/08 00:41:03;;;;;;;2.40;2.20;;;;;;;2.82;77.23;95311.63;5014366;28;20226;-79
2022/01/08 00:43:29;;;;;;;2.60;2.40;;;;;;;2.88;76.75;95315.38;5015655;28;20211;-79
2022/01/08 00:45:56;;;;;;;2.30;2.10;;;;;;;2.93;76.47;95303.03;5014488;28;20276;-79
2022/01/08 00:48:26;;;;;;;2.27;2.07;;;;;;;2.92;75.77;95292.06;5011064;28;20227;-80
2022/01/08 00:50:53;;;;;;;2.87;2.27;;;;;;;2.98;75.92;95300.91;5014906;28;20602;-79
2022/01/08 00:53:23;;;;;;;3.90;3.50;;;;;;;2.99;75.75;95289.78;5014806;28;20666;-79
2022/01/08 00:55:53;;;;;;;3.43;2.87;;;;;;;3.03;75.57;95291.13;5014972;28;20206;-80
2022/01/08 00:58:24;;;;;;;2.73;2.27;;;;;;;3.05;75.75;95290.06;5005686;28;20234;-80
2022/01/08 01:00:53;;;;;;;2.43;2.20;;;;;;;3.05;75.13;95279.06;5014128;28;20226;-80
2022/01/08 01:03:21;;;;;;;2.60;1.90;;;;;;;3.03;74.86;95278.41;5014439;28;20243;-79
2022/01/08 01:05:51;;;;;;;2.00;1.90;;;;;;;2.98;75.12;95267.84;5014775;28;20206;-81
2022/01/08 01:08:20;;;;;;;2.73;2.40;;;;;;;2.98;74.93;95265.28;5014519;28;20218;-80
2022/01/08 01:10:46;;;;;;;2.43;2.10;;;;;;;3.00;74.79;95259.13;5013880;28;20234;-79
2022/01/08 01:13:15;;;;;;;2.17;1.97;;;;;;;3.02;74.83;95256.47;5014083;28;20195;-80
2022/01/08 01:15:43;;;;;;;2.27;2.03;;;;;;;3.00;74.91;95255.78;5014393;28;20693;-79
2022/01/08 01:18:09;;;;;;;2.93;2.10;;;;;;;3.02;74.79;95246.28;5014051;28;20290;-80
2022/01/08 01:20:38;;;;;;;2.23;1.93;;;;;;;3.04;74.34;95250.28;5013322;28;20584;-80
2022/01/08 01:23:11;;;;;;;2.70;2.20;;;;;;;3.04;74.22;95240.13;5013721;28;20203;-80
2022/01/08 01:25:41;;;;;;;2.37;2.10;;;;;;;3.01;74.35;95235.31;5013928;28;20610;-79
2022/01/08 01:28:35;;;;;;;2.40;2.20;;;;;;;3.00;74.14;95238.78;5014705;28;20219;-80
2022/01/08 01:42:36;;;;;;;2.30;2.10;;;;;;;2.66;75.24;95223.22;5014713;28;20197;-79
2022/01/08 01:47:47;;;;;;;2.73;2.27;;;;;;;2.62;75.50;95206.66;5000389;28;20608;-79
2022/01/08 01:50:15;;;;;;;2.80;2.20;;;;;;;2.66;75.39;95202.09;5014769;28;20332;-78
2022/01/08 01:52:41;;;;;;;2.13;1.97;;;;;;;2.64;75.08;95196.34;5014382;28;20203;-79
2022/01/08 01:55:12;;;;;;;2.13;2.03;;;;;;;2.63;75.35;95194.75;5015374;28;20194;-79
2022/01/08 01:57:40;;;;;;;2.43;2.23;;;;;;;2.59;75.41;95191.69;5013411;28;20223;-79
2022/01/08 02:00:11;;;;;;;2.13;1.93;;;;;;;2.55;75.22;95189.53;5014697;28;20245;-78
2022/01/08 02:02:40;;;;;;;3.60;2.30;;;;;;;2.57;75.11;95182.56;5014301;28;20199;-79
2022/01/08 02:05:07;;;;;;;2.30;2.03;;;;;;;2.57;75.13;95175.75;5014221;28;20222;-78
2022/01/08 02:07:35;;;;;;;2.20;2.00;;;;;;;2.56;75.57;95178.44;5014098;28;20690;-79
2022/01/08 02:10:05;;;;;;;2.50;2.23;;;;;;;2.63;75.30;95171.88;5016423;28;20717;-78
2022/01/08 02:12:34;;;;;;;3.57;2.60;;;;;;;2.64;75.09;95163.31;5020281;28;20199;-78
2022/01/08 02:15:03;;;;;;;2.70;2.10;;;;;;;2.63;75.71;95164.25;5018346;28;20191;-78
2022/01/08 02:17:31;;;;;;;2.60;2.40;;;;;;;2.62;75.58;95160.09;5025032;28;20214;-78
2022/01/08 02:19:59;;;;;;;2.40;2.20;;;;;;;2.54;75.44;95154.91;5024250;28;20227;-78
2022/01/08 02:22:28;;;;;;;2.33;2.13;;;;;;;2.56;75.14;95156.38;5025683;28;20206;-77
2022/01/08 02:25:02;;;;;;;2.10;1.93;;;;;;;2.53;74.58;95153.28;5025062;28;20202;-78
2022/01/08 02:27:29;;;;;;;2.10;1.90;;;;;;;2.50;74.73;95149.31;5024889;28;20221;-79
2022/01/08 02:29:58;;;;;;;1.90;1.80;;;;;;;2.47;74.82;95146.25;5022665;28;20230;-78
2022/01/08 02:32:28;;;;;;;4.67;2.63;;;;;;;2.43;74.87;95138.91;5023281;28;20210;-79
2022/01/08 02:34:59;;;;;;;3.07;2.30;;;;;;;2.37;75.24;95133.56;5022694;28;20206;-79
2022/01/08 02:37:29;;;;;;;2.60;2.30;;;;;;;2.38;75.28;95137.69;5021967;28;20223;-77
2022/01/08 02:39:57;;;;;;;2.30;2.10;;;;;;;2.40;74.90;95131.53;5020999;28;20246;-78
2022/01/08 02:42:36;;;;;;;3.53;2.57;;;;;;;2.35;74.96;95126.06;5022304;28;20202;-79
2022/01/08 02:45:04;;;;;;;3.17;2.53;;;;;;;2.25;75.44;95120.22;5021599;28;20206;-78
2022/01/08 02:47:30;;;;;;;2.87;2.50;;;;;;;2.24;75.84;95115.28;5022752;28;20231;-79
2022/01/08 02:49:58;;;;;;;2.50;2.30;;;;;;;2.17;75.97;95107.41;5017163;28;20248;-79
2022/01/08 02:52:25;;;;;;;2.47;2.27;;;;;;;2.14;75.81;95107.66;5015649;28;20685;-78
2022/01/08 02:54:51;;;;;;;2.63;2.20;;;;;;;1.99;76.78;95101.41;5015337;28;20218;-79
2022/01/08 02:57:18;;;;;;;2.73;2.10;;;;;;;2.03;76.80;95098.47;5015402;28;20210;-78
2022/01/08 02:59:44;;;;;;;2.60;2.40;;;;;;;2.01;76.64;95092.72;5015371;28;20230;-78
2022/01/08 03:02:11;;;;;;;2.33;2.13;;;;;;;2.02;76.87;95098.63;5015629;28;20202;-79
2022/01/08 03:04:37;;;;;;;2.30;2.10;;;;;;;2.02;76.75;95091.81;5015346;28;20212;-79
2022/01/08 03:07:05;;;;;;;2.10;2.00;;;;;;;2.07;76.27;95084.59;5016746;28;20206;-79
2022/01/08 03:09:35;;;;;;;2.37;2.17;;;;;;;2.07;76.08;95088.84;5014480;28;20309;-78
2022/01/08 03:12:01;;;;;;;2.20;2.00;;;;;;;2.04;76.06;95077.22;4994665;28;20220;-79
2022/01/08 03:14:28;;;;;;;2.37;2.17;;;;;;;2.05;76.25;95075.50;4995543;28;20203;-78
2022/01/08 03:16:54;;;;;;;2.63;2.20;;;;;;;2.03;76.26;95073.09;5014319;28;20206;-78
2022/01/08 03:19:22;;;;;;;2.20;2.00;;;;;;;2.08;76.13;95070.16;5014884;28;20215;-78
2022/01/08 03:21:52;;;;;;;2.47;2.20;;;;;;;2.00;75.88;95067.47;5014994;28;20231;-78
2022/01/08 03:24:27;;;;;;;2.97;2.00;;;;;;;2.01;76.32;95056.38;5014772;28;20674;-77
2022/01/08 03:26:53;;;;;;;2.10;1.90;;;;;;;1.96;76.24;95064.41;5014795;28;20202;-79
2022/01/08 03:29:20;;;;;;;3.13;2.30;;;;;;;1.98;76.04;95049.03;5014972;28;20226;-80
2022/01/08 03:31:47;;;;;;;2.20;2.00;;;;;;;2.02;75.80;95051.19;5014989;28;20219;-79
2022/01/08 03:34:13;;;;;;;2.20;2.00;;;;;;;2.01;75.65;95044.50;5015548;28;20203;-79
2022/01/08 03:36:40;;;;;;;2.20;2.00;;;;;;;1.97;75.76;95048.25;5015377;28;20210;-78
2022/01/08 03:39:06;;;;;;;2.30;2.10;;;;;;;1.90;75.54;95031.97;5015684;28;20226;-78
2022/01/08 03:41:35;;;;;;;2.00;1.90;;;;;;;1.82;76.37;95038.66;5014657;28;20227;-79
2022/01/08 03:44:01;;;;;;;2.57;2.37;;;;;;;1.81;76.20;95034.53;5019784;28;20203;-78
2022/01/08 03:46:33;;;;;;;2.20;1.87;;;;;;;1.72;76.64;95023.47;5018823;28;20218;-77
2022/01/08 03:49:17;;;;;;;2.20;1.97;;;;;;;1.59;77.23;95026.28;5013925;28;20767;-78
2022/01/08 03:51:44;;;;;;;2.30;2.00;;;;;;;1.57;77.26;95024.81;5018198;28;20337;-79
2022/01/08 03:54:11;;;;;;;2.07;1.93;;;;;;;1.52;77.88;95024.44;5018920;28;20207;-78
2022/01/08 03:56:39;;;;;;;2.30;2.10;;;;;;;1.45;78.29;95023.34;5018257;28;20195;-79
2022/01/08 03:59:06;;;;;;;3.00;1.80;;;;;;;1.54;77.57;95017.50;5018187;28;20587;-78
2022/01/08 04:01:32;;;;;;;2.03;1.93;;;;;;;1.56;77.63;95010.50;5018941;28;20607;-78
2022/01/08 04:03:59;;;;;;;2.40;2.07;;;;;;;1.53;77.95;95019.22;5018487;28;20210;-79
2022/01/08 04:06:25;;;;;;;2.13;1.93;;;;;;;1.49;77.65;95005.19;5018298;28;20199;-78
2022/01/08 04:08:56;;;;;;;2.00;1.80;;;;;;;1.45;77.98;94998.00;5018105;28;20640;-77
2022/01/08 04:11:23;;;;;;;2.60;1.90;;;;;;;1.36;78.64;94991.97;5017459;28;20226;-79
2022/01/08 04:13:51;;;;;;;1.83;1.73;;;;;;;1.32;78.79;94998.28;5018106;28;20692;-80
2022/01/08 04:16:22;;;;;;;1.97;1.80;;;;;;;1.29;78.76;94985.88;5017231;28;20199;-78
2022/01/08 04:18:49;;;;;;;2.10;1.90;;;;;;;1.28;79.06;94979.19;5017783;28;20629;-78
2022/01/08 04:21:50;;;;;;;5.43;2.10;;;;;;;1.34;78.64;94989.59;5017651;28;20230;-78
2022/01/08 04:24:10;;;;;;;2.03;1.90;;;;;;;1.32;79.13;94976.25;5018035;28;20266;-79
2022/01/08 04:26:36;;;;;;;2.37;1.90;;;;;;;1.29;79.09;94981.59;5018033;28;20202;-78
2022/01/08 04:29:07;;;;;;;1.70;1.60;;;;;;;1.27;79.01;94975.84;5018674;28;20226;-78
2022/01/08 04:31:34;;;;;;;2.00;1.80;;;;;;;1.25;79.03;94967.59;5017877;28;20676;-79
2022/01/08 04:34:00;;;;;;;1.80;1.70;;;;;;;1.19;79.36;94959.72;5018661;28;20198;-78
2022/01/08 04:36:27;;;;;;;2.20;2.00;;;;;;;1.19;79.45;94965.56;5017409;28;20223;-78
2022/01/08 04:38:53;;;;;;;1.80;1.70;;;;;;;1.20;79.21;94969.72;5017318;28;20218;-78
2022/01/08 04:41:20;;;;;;;2.00;1.60;;;;;;;1.30;79.04;94969.72;5016058;28;20381;-78
2022/01/08 04:43:46;;;;;;;2.10;1.77;;;;;;;1.35;78.81;94963.28;5017304;28;20211;-78
2022/01/08 04:46:14;;;;;;;1.87;1.60;;;;;;;1.41;78.25;94961.94;5017139;28;20216;-78
2022/01/08 04:48:41;;;;;;;1.90;1.80;;;;;;;1.44;77.90;94965.97;5017339;28;20604;-78
2022/01/08 04:51:08;;;;;;;1.70;1.60;;;;;;;1.49;77.87;94966.34;5016924;28;20230;-78
2022/01/08 04:53:34;;;;;;;1.50;1.40;;;;;;;1.56;77.45;94963.13;5016661;28;20206;-78
2022/01/08 04:56:01;;;;;;;1.50;1.30;;;;;;;1.59;77.23;94979.81;5016713;28;20206;-79
2022/01/08 04:58:28;;;;;;;1.60;1.50;;;;;;;1.62;76.63;94987.94;5016317;28;20230;-79
2022/01/08 05:00:54;;;;;;;1.70;1.50;;;;;;;1.66;76.50;94984.22;5016444;28;20231;-78
2022/01/08 05:03:22;;;;;;;1.57;1.47;;;;;;;1.63;76.78;94997.16;5016980;28;20207;-78
2022/01/08 05:05:48;;;;;;;2.40;1.40;;;;;;;1.67;76.54;95034.03;5017616;28;20229;-79
2022/01/08 05:08:15;;;;;;;1.40;1.30;;;;;;;1.71;77.03;95048.03;5016116;28;20223;-78
2022/01/08 05:10:42;;;;;;;1.40;1.30;;;;;;;1.73;77.13;95048.69;5015465;28;20223;-78
2022/01/08 05:13:08;;;;;;;1.63;1.30;;;;;;;1.74;76.61;95044.41;5015815;28;20195;-78
2022/01/08 05:15:36;;;;;;;1.20;1.10;;;;;;;1.73;77.70;95040.28;5016802;28;20641;-79
2022/01/08 05:18:04;;;;;;;0.80;0.80;;;;;;;1.83;78.16;95027.56;5015979;28;20492;-79
2022/01/08 05:20:35;;;;;;;0.90;0.90;;;;;;;1.91;77.99;95027.69;5016278;28;20237;-78
2022/01/08 05:23:03;;;;;;;0.90;0.90;;;;;;;2.01;78.07;95016.56;5015746;28;20203;-79
2022/01/08 05:25:31;;;;;;;1.00;0.90;;;;;;;2.10;77.62;95012.41;5016400;28;20217;-78
2022/01/08 05:27:58;;;;;;;2.30;2.10;;;;;;;2.16;77.36;94996.59;5016033;28;20226;-79
2022/01/08 05:30:29;;;;;;;0.83;0.83;;;;;;;2.21;77.29;94993.66;5015815;28;20226;-79
2022/01/08 05:32:56;;;;;;;1.00;0.90;;;;;;;2.28;77.83;94994.72;5015271;28;20219;-78
2022/01/08 05:35:24;;;;;;;0.83;0.83;;;;;;;2.32;77.54;94989.19;5016857;28;20229;-79
2022/01/08 05:37:53;;;;;;;0.93;0.90;;;;;;;2.32;78.31;94984.09;5015122;28;20227;-79
2022/01/08 05:40:20;;;;;;;2.27;0.90;;;;;;;2.23;79.21;94986.69;5015235;28;20234;-79
2022/01/08 05:42:46;;;;;;;1.00;0.90;;;;;;;2.25;79.38;94997.53;5016106;28;20198;-78
2022/01/08 05:45:13;;;;;;;1.00;0.90;;;;;;;2.19;78.40;94990.44;5015489;28;20572;-78
2022/01/08 05:47:40;;;;;;;1.00;0.90;;;;;;;2.16;77.66;94989.00;5014454;28;20230;-79
2022/01/08 05:50:08;;;;;;;0.90;0.90;;;;;;;2.18;77.87;94991.38;5014977;28;20317;-78
2022/01/08 05:52:35;;;;;;;0.90;0.90;;;;;;;2.14;77.61;94997.69;5014456;28;20221;-79
2022/01/08 05:55:04;;;;;;;0.80;0.80;;;;;;;2.14;77.78;95005.31;5015374;28;20206;-79
2022/01/08 05:57:30;;;;;;;0.80;0.80;;;;;;;2.10;77.78;95014.16;5014386;28;20231;-77
2022/01/08 05:59:57;;;;;;;0.70;0.70;;;;;;;2.12;78.87;95022.44;5014722;28;20230;-79
2022/01/08 06:02:23;;;;;;;0.80;0.80;;;;;;;2.05;80.68;95012.81;5014619;28;20206;-79
2022/01/08 06:04:50;;;;;;;1.10;1.00;;;;;;;2.11;81.63;95016.56;5014811;28;20199;-78
2022/01/08 06:07:16;;;;;;;0.83;0.80;;;;;;;2.05;82.21;95006.94;5015088;28;20194;-79
2022/01/08 06:09:42;;;;;;;0.80;0.80;;;;;;;2.05;83.19;95001.88;5015623;28;20238;-79
2022/01/08 06:12:11;;;;;;;0.70;0.70;;;;;;;2.06;83.73;95001.72;5015723;28;20223;-78
2022/01/08 06:14:38;;;;;;;1.07;0.70;;;;;;;2.15;82.76;94984.06;5015157;28;20596;-78
2022/01/08 06:17:04;;;;;;;0.77;0.77;;;;;;;2.26;82.10;94989.75;5015357;28;20209;-79
2022/01/08 06:19:32;;;;;;;0.83;0.70;;;;;;;2.34;80.82;94972.06;5015138;28;20242;-79
2022/01/08 06:21:59;;;;;;;0.70;0.70;;;;;;;2.35;79.86;94983.03;5014309;28;20609;-79
2022/01/08 06:24:25;;;;;;;0.83;0.80;;;;;;;2.38;79.38;94987.84;5014386;28;20202;-79
2022/01/08 06:26:51;;;;;;;0.70;0.70;;;;;;;2.46;78.69;94984.59;5014961;28;20202;-78
2022/01/08 06:29:19;;;;;;;0.70;0.70;;;;;;;2.46;78.56;94992.22;5014310;28;20233;-78
2022/01/08 06:31:46;;;;;;;0.80;0.80;;;;;;;2.53;77.48;94988.16;5014711;28;20634;-79
2022/01/08 06:34:12;;;;;;;0.80;0.80;;;;;;;2.54;75.98;94988.00;5014667;28;20218;-78
2022/01/08 06:36:39;;;;;;;1.23;1.03;;;;;;;2.53;75.77;94991.50;5014652;28;20195;-79
2022/01/08 06:39:05;;;;;;;1.00;0.90;;;;;;;2.53;74.91;94990.69;5013370;28;20242;-78
2022/01/08 06:41:32;;;;;;;1.57;0.70;;;;;;;2.47;75.00;94987.00;5014261;28;20223;-76
2022/01/08 06:43:58;;;;;;;1.63;0.70;;;;;;;2.55;75.01;94991.34;5013833;28;20195;-78
2022/01/08 06:46:26;;;;;;;1.47;0.80;;;;;;;2.50;74.64;94989.25;5013740;28;20230;-79
2022/01/08 06:48:53;;;;;;;0.77;0.77;;;;;;;2.48;74.38;94996.22;5014694;28;20223;-79
2022/01/08 06:51:19;;;;;;;0.77;0.77;;;;;;;2.51;73.66;95000.19;5012713;28;20243;-79
2022/01/08 06:53:46;;;;;;;0.67;0.67;;;;;;;2.48;74.12;94990.34;5014669;28;20816;-78
2022/01/08 06:56:13;;;;;;;0.90;0.80;;;;;;;2.50;74.43;94991.78;5013136;28;20203;-81
2022/01/08 06:58:41;;;;;;;0.70;0.70;;;;;;;2.49;74.41;94992.75;5013981;28;20234;-81
2022/01/08 07:01:08;;;;;;;1.37;0.70;;;;;;;2.60;73.58;94987.44;5013914;28;20258;-81
2022/01/08 07:03:36;;;;;;;0.60;0.60;;;;;;;2.61;73.92;94991.59;5014668;28;20658;-82
2022/01/08 07:06:03;;;;;;;0.70;0.70;;;;;;;2.65;73.32;94998.00;5014960;28;20210;-81
2022/01/08 07:08:29;;;;;;;1.00;0.73;;;;;;;2.60;73.30;95000.16;5014687;28;20304;-79
2022/01/08 07:10:58;;;;;;;0.60;0.60;;;;;;;2.62;73.91;95000.81;5014122;28;20231;-79
2022/01/08 07:13:27;;;;;;;2.43;0.93;;;;;;;2.76;83.42;95005.41;5014135;28;20230;-80
2022/01/08 07:15:54;;;;;;;1.13;1.03;;;;;;;3.74;91.03;95006.25;5012505;28;20689;-79
2022/01/08 07:18:20;;;;;;;1.23;0.70;;;;;;;4.49;78.31;95012.41;5014996;28;20728;-80
2022/01/08 07:20:51;;;;;;;0.80;0.80;;;;;;;4.71;74.81;95005.94;5015615;28;20242;-81
2022/01/08 07:23:18;;;;;;;0.70;0.70;;;;;;;4.76;69.44;95019.84;5016138;28;20199;-79
2022/01/08 07:25:44;;;;;;;0.80;0.77;;;;;;;4.36;66.75;95015.38;5011143;28;20592;-80
2022/01/08 07:28:10;;;;;;;0.70;0.70;;;;;;;3.75;70.40;95029.03;5015690;28;20223;-81
2022/01/08 07:30:37;;;;;;;0.97;0.80;;;;;;;3.55;73.64;95036.97;5019760;28;20242;-81
2022/01/08 07:33:03;;;;;;;0.93;0.73;;;;;;;3.27;77.37;95042.13;5018605;28;20222;-81
2022/01/08 07:35:30;;;;;;;1.13;0.70;;;;;;;3.03;80.02;95040.19;5019130;28;20205;-81
2022/01/08 07:37:58;;;;;;;0.70;0.70;;;;;;;2.90;81.82;95034.63;5018270;28;20218;-81
2022/01/08 07:40:25;;;;;;;0.93;0.80;;;;;;;2.92;83.49;95048.00;5018317;28;20230;-81
2022/01/08 07:42:52;;;;;;;0.70;0.70;;;;;;;2.87;85.01;95057.81;5019312;28;20203;-81
2022/01/08 07:45:19;;;;;;;0.97;0.87;;;;;;;2.68;87.25;95038.38;5018381;28;20202;-81
2022/01/08 07:47:48;;;;;;;1.17;0.80;;;;;;;2.62;89.72;95051.63;5019874;28;20215;-81
2022/01/08 07:50:16;;;;;;;1.07;0.97;;;;;;;2.59;90.00;95057.00;5018284;28;20273;-81
2022/01/08 07:52:43;;;;;;;1.77;0.80;;;;;;;2.48;92.06;95054.66;5018519;28;20231;-80
2022/01/08 07:55:12;;;;;;;0.80;0.80;;;;;;;2.50;92.94;95050.22;5018745;28;20222;-81
2022/01/08 07:57:38;;;;;;;0.80;0.80;;;;;;;2.55;93.13;95048.03;5018438;28;20222;-81
2022/01/08 08:00:07;;;;;;;1.07;0.83;;;;;;;2.49;93.84;95055.44;5018870;28;20233;-80
2022/01/08 08:02:33;;;;;;;0.70;0.70;;;;;;;2.68;92.54;95051.09;5017812;28;20207;-81
2022/01/08 08:04:59;;;;;;;0.83;0.80;;;;;;;2.57;93.72;95058.06;5018975;28;20561;-81
2022/01/08 08:07:28;;;;;;;0.90;0.90;;;;;;;2.34;96.85;95057.63;5016397;28;20202;-80
2022/01/08 08:09:55;;;;;;;0.80;0.80;;;;;;;2.43;96.98;95049.97;5015721;28;20257;-80
2022/01/08 08:12:23;;;;;;;1.27;1.00;;;;;;;2.54;96.05;95056.59;5017401;28;20241;-80
2022/01/08 08:14:50;;;;;;;1.20;0.87;;;;;;;2.58;95.82;95057.94;5017931;28;20226;-80
2022/01/08 08:17:17;;;;;;;0.73;0.73;;;;;;;2.49;96.65;95058.00;5020131;28;20226;-79
2022/01/08 08:19:58;;;;;;;0.80;0.80;;;;;;;2.51;96.35;95068.78;5017674;28;20226;-81
2022/01/08 08:22:25;;;;;;;1.20;1.10;;;;;;;2.53;96.33;95072.00;5018363;28;20690;-81
2022/01/08 08:24:51;;;;;;;1.57;0.90;;;;;;;2.56;95.44;95061.56;5017911;28;20199;-81
2022/01/08 08:27:18;;;;;;;0.70;0.70;;;;;;;2.54;94.25;95078.69;5018562;28;20207;-80
2022/01/08 08:29:45;;;;;;;1.90;0.87;;;;;;;2.58;94.38;95085.88;5017926;28;20227;-81
2022/01/08 08:32:12;;;;;;;1.00;0.90;;;;;;;2.59;93.73;95084.16;5018132;28;20234;-81
2022/01/08 08:34:39;;;;;;;1.90;0.90;;;;;;;2.65;93.21;95086.94;5018302;28;20265;-81
2022/01/08 08:37:05;;;;;;;1.07;0.97;;;;;;;2.74;93.44;95082.72;5011851;28;20859;-80
2022/01/08 08:39:32;;;;;;;0.97;0.80;;;;;;;2.71;93.92;95098.25;5014254;28;20362;-80
2022/01/08 08:41:59;;;;;;;0.80;0.80;;;;;;;2.76;94.23;95088.47;5015758;28;20199;-81
2022/01/08 08:44:25;;;;;;;0.70;0.70;;;;;;;2.74;94.18;95086.06;5016396;28;20194;-81
2022/01/08 08:49:34;;;;;;;0.80;0.80;;;;;;;2.78;93.59;95091.69;5014609;28;20245;-80
2022/01/08 08:52:00;;;;;;;0.70;0.60;;;;;;;2.77;92.73;95092.63;5015855;28;20210;-80
2022/01/08 08:54:27;;;;;;;0.80;0.80;;;;;;;2.81;91.27;95096.50;5016921;28;20678;-81
2022/01/08 08:56:53;;;;;;;0.70;0.70;;;;;;;2.84;91.24;95114.00;5013393;28;20302;-80
2022/01/08 08:59:20;;;;;;;0.77;0.77;;;;;;;2.91;90.13;95112.50;5016605;28;20233;-80
2022/01/08 09:01:46;;;;;;;1.67;0.70;;;;;;;2.87;89.45;95118.81;5016989;28;20205;-80
2022/01/08 09:04:14;;;;;;;0.80;0.80;;;;;;;2.99;89.15;95138.03;5015577;28;20199;-81
2022/01/08 09:06:41;;;;;;;0.80;0.80;;;;;;;2.98;88.31;95140.69;5016898;28;20197;-80
2022/01/08 09:09:07;;;;;;;0.80;0.80;;;;;;;2.89;90.18;95144.06;5016772;28;20226;-81
2022/01/08 09:11:34;;;;;;;1.13;0.70;;;;;;;2.84;91.22;95151.34;5012902;28;20225;-81
2022/01/08 09:14:00;;;;;;;0.67;0.67;;;;;;;2.92;90.43;95153.97;5016138;28;20219;-80
2022/01/08 09:16:27;;;;;;;1.30;1.20;;;;;;;2.98;88.57;95166.13;5015644;28;20202;-79
2022/01/08 09:18:54;;;;;;;2.60;1.30;;;;;;;3.00;84.10;95161.72;5014987;28;20249;-80
2022/01/08 09:21:22;;;;;;;1.03;0.70;;;;;;;3.28;83.33;95165.84;5015041;28;20238;-81
2022/01/08 09:23:50;;;;;;;0.60;0.60;;;;;;;3.37;83.13;95180.25;5016108;28;20198;-80
2022/01/08 09:26:17;;;;;;;1.50;1.20;;;;;;;3.36;82.23;95186.28;5013832;28;20199;-81
2022/01/08 09:28:43;;;;;;;0.73;0.73;;;;;;;3.25;82.88;95175.53;5012712;28;20280;-81
2022/01/08 09:31:10;;;;;;;0.80;0.80;;;;;;;3.16;82.65;95187.31;5012471;28;20231;-79
2022/01/08 09:33:37;;;;;;;0.70;0.70;;;;;;;3.17;81.14;95193.22;5013579;28;20223;-80
2022/01/08 09:36:05;;;;;;;0.80;0.80;;;;;;;3.10;81.17;95203.94;5016878;28;20206;-79
2022/01/08 09:38:33;;;;;;;0.60;0.60;;;;;;;3.09;81.39;95193.91;5017508;28;20218;-80
2022/01/08 09:41:00;;;;;;;1.40;1.20;;;;;;;2.91;81.14;95206.56;5014418;28;20226;-80
2022/01/08 09:43:27;;;;;;;1.27;1.17;;;;;;;2.96;82.15;95217.13;5014303;28;20202;-80
2022/01/08 09:45:53;;;;;;;1.80;1.10;;;;;;;2.97;80.71;95228.09;5013656;28;20685;-80
2022/01/08 09:48:20;;;;;;;0.87;0.87;;;;;;;3.02;82.01;95228.50;5013938;28;20635;-80
2022/01/08 09:50:46;;;;;;;1.00;0.90;;;;;;;2.94;81.41;95229.16;5013817;28;20230;-79
2022/01/08 09:53:13;;;;;;;1.20;1.10;;;;;;;2.90;81.98;95238.00;5012474;28;20233;-80
2022/01/08 09:55:41;;;;;;;1.73;0.93;;;;;;;2.88;79.37;95249.28;5010359;28;20204;-80
2022/01/08 09:58:07;;;;;;;0.87;0.83;;;;;;;2.99;84.37;95255.00;4994495;28;20739;-80
2022/01/08 10:00:36;;;;;;;0.80;0.80;;;;;;;3.28;79.75;95237.06;5043235;22;20261;-82
2022/01/08 10:03:20;;;;;;;0.77;0.77;;;;;;;3.22;76.95;95245.28;5015408;28;20210;-84
2022/01/08 10:05:51;;;;;;;0.80;0.80;;;;;;;3.16;76.34;95271.25;5013727;28;20198;-85
2022/01/08 10:08:24;;;;;;;1.17;1.00;;;;;;;3.26;77.76;95261.06;5012988;28;20199;-84
2022/01/08 10:11:00;;;;;;;1.03;0.97;;;;;;;3.31;76.06;95269.06;5025983;28;20291;-83
2022/01/08 10:13:31;;;;;;;0.90;0.90;;;;;;;3.23;76.14;95276.59;5021089;28;20225;-84
2022/01/08 10:18:44;;;;;;;1.47;1.00;;;;;;;3.42;75.69;95282.44;5021493;28;20252;-84
2022/01/08 10:21:21;;;;;;;2.87;2.40;;;;;;;3.40;75.24;95275.88;5021374;28;20230;-85
2022/01/08 10:23:50;;;;;;;2.93;2.30;;;;;;;3.39;74.84;95287.00;5012445;28;20644;-84
2022/01/08 10:26:21;;;;;;;1.20;1.10;;;;;;;3.34;75.14;95294.22;5014027;28;20211;-84
2022/01/08 10:28:50;;;;;;;1.20;1.10;;;;;;;3.38;74.06;95298.09;5029095;28;20224;-83
2022/01/08 10:31:20;;;;;;;0.90;0.90;;;;;;;3.30;73.72;95293.69;5029707;28;20631;-83
2022/01/08 10:33:49;;;;;;;1.10;1.00;;;;;;;3.30;74.07;95291.16;5031477;28;20218;-84
2022/01/08 10:36:20;;;;;;;1.73;1.20;;;;;;;3.24;73.25;95317.19;5028334;28;20206;-84
2022/01/08 10:38:50;;;;;;;1.50;1.40;;;;;;;3.26;73.63;95302.56;5012769;28;20198;-83
2022/01/08 10:41:19;;;;;;;1.00;1.00;;;;;;;3.31;72.64;95304.69;5011998;28;20234;-84
2022/01/08 10:43:46;;;;;;;1.20;1.10;;;;;;;3.35;72.09;95322.09;5026071;28;20657;-83
2022/01/08 10:46:15;;;;;;;1.20;1.10;;;;;;;3.50;72.15;95319.09;5015280;28;20206;-83
2022/01/08 10:48:49;;;;;;;1.40;1.00;;;;;;;3.89;70.97;95329.91;5024866;28;20679;-83
2022/01/08 10:51:27;;;;;;;1.20;1.10;;;;;;;3.96;70.44;95338.59;5017672;28;20230;-84
2022/01/08 10:54:00;;;;;;;0.97;0.97;;;;;;;4.05;68.77;95328.34;5030059;28;20221;-81
2022/01/08 10:56:29;;;;;;;1.40;1.30;;;;;;;4.43;68.25;95327.28;5034121;28;20548;-83
2022/01/08 10:59:02;;;;;;;1.33;1.23;;;;;;;4.76;66.93;95330.94;5022651;28;20669;-81
2022/01/08 11:01:43;;;;;;;1.93;1.40;;;;;;;5.06;66.89;95339.94;5019404;28;20768;-83
2022/01/08 11:04:12;;;;;;;1.47;1.37;;;;;;;5.20;65.27;95331.72;5033104;28;20197;-84
2022/01/08 11:06:51;;;;;;;1.53;1.10;;;;;;;5.55;64.58;95330.84;5033049;28;20218;-83
2022/01/08 11:09:17;;;;;;;1.27;1.17;;;;;;;5.66;62.84;95334.88;5018810;28;20787;-83
2022/01/08 11:11:45;;;;;;;1.40;1.30;;;;;;;5.78;62.89;95331.09;5031971;28;20768;-84
2022/01/08 11:14:34;;;;;;;1.43;1.27;;;;;;;5.80;61.64;95323.28;5033352;28;20218;-84
2022/01/08 11:17:00;;;;;;;1.20;1.07;;;;;;;5.74;62.11;95337.47;5024503;28;20221;-83
2022/01/08 11:19:28;;;;;;;1.40;1.30;;;;;;;5.34;62.64;95348.28;5024567;28;20672;-84
2022/01/08 11:21:55;;;;;;;1.80;1.70;;;;;;;4.90;63.32;95344.13;5032289;28;20214;-83
2022/01/08 11:24:24;;;;;;;2.53;1.73;;;;;;;4.72;64.35;95361.97;5025355;28;20194;-84
2022/01/08 11:26:54;;;;;;;1.77;1.67;;;;;;;4.48;64.98;95350.59;5031692;28;20202;-84
2022/01/08 11:29:23;;;;;;;2.10;1.90;;;;;;;4.39;65.25;95360.88;5016172;28;20191;-84
2022/01/08 11:31:56;;;;;;;2.00;1.83;;;;;;;4.23;66.27;95351.31;5028641;28;20230;-84
2022/01/08 11:34:24;;;;;;;1.80;1.70;;;;;;;4.26;66.32;95356.09;5035211;28;20946;-83
2022/01/08 11:36:51;;;;;;;2.17;1.97;;;;;;;4.24;66.72;95347.00;5027988;28;20203;-83
2022/01/08 11:39:18;;;;;;;1.80;1.70;;;;;;;4.20;66.28;95350.81;5024479;28;20257;-84
2022/01/08 11:41:46;;;;;;;2.20;2.00;;;;;;;4.20;66.17;95358.44;5014945;28;20570;-83
2022/01/08 11:44:14;;;;;;;2.17;1.83;;;;;;;3.98;65.09;95350.25;5022655;28;20214;-84
2022/01/08 11:46:41;;;;;;;2.03;1.93;;;;;;;4.05;65.23;95368.28;5020457;28;20206;-83
2022/01/08 11:49:08;;;;;;;3.10;1.53;;;;;;;3.95;65.26;95344.63;5028505;28;20202;-81
2022/01/08 11:51:35;;;;;;;2.07;1.93;;;;;;;3.96;64.94;95349.59;5023865;28;20214;-82
2022/01/08 11:54:02;;;;;;;1.77;1.67;;;;;;;3.99;65.31;95348.50;5027487;28;20223;-84
2022/01/08 11:56:32;;;;;;;1.90;1.80;;;;;;;4.01;64.98;95352.50;5016575;28;20199;-82
2022/01/08 11:59:05;;;;;;;2.00;1.80;;;;;;;3.98;65.54;95350.25;5025638;28;20259;-84
2022/01/08 12:01:36;;;;;;;2.53;1.70;;;;;;;3.90;65.18;95362.06;5027621;28;20229;-81
2022/01/08 12:04:06;;;;;;;1.50;1.40;;;;;;;3.95;65.52;95354.81;5017145;28;20194;-83
2022/01/08 12:06:39;;;;;;;1.90;1.60;;;;;;;3.84;65.58;95355.81;5034825;28;20202;-83